Time;durP1;ratioP1;P1;durP2;ratioP2;P2;SDS_P1;SDS_P2;PMS_P1;PMS_P2;Temp;Humidity;BMP_temperature;BMP_pressure;BME280_temperature;BME280_humidity;BME280_pressure;Samples;Min_cycle;Max_cycle;Signal;HPM_P1;HPM_P2
2021/10/21 00:00:41;;;;;;;13.18;6.17;;;;;;;15.89;58.66;99171.64;1749467;82;21212;-80
2021/10/21 00:03:08;;;;;;;8.40;5.85;;;;;;;15.88;58.77;99164.62;1816527;79;21786;-81
2021/10/21 00:05:35;;;;;;;13.03;8.03;;;;;;;15.87;58.87;99161.63;1749072;82;21047;-80
2021/10/21 00:08:01;;;;;;;9.93;6.55;;;;;;;15.85;58.97;99155.68;1749332;82;21047;-81
2021/10/21 00:10:27;;;;;;;13.58;6.70;;;;;;;15.83;59.08;99149.73;1749369;82;21054;-81
2021/10/21 00:12:53;;;;;;;11.53;7.70;;;;;;;15.80;59.19;99132.70;1744848;82;21808;-81
2021/10/21 00:15:19;;;;;;;9.93;5.90;;;;;;;15.78;59.27;99136.16;1784246;80;20928;-81
2021/10/21 00:17:45;;;;;;;9.73;5.72;;;;;;;15.74;59.39;99128.27;1783960;80;21015;-81
2021/10/21 00:20:11;;;;;;;10.25;6.12;;;;;;;15.72;59.49;99120.98;1791308;78;20971;-81
2021/10/21 00:22:37;;;;;;;10.98;5.67;;;;;;;15.69;59.61;99128.17;1793215;78;21290;-80
2021/10/21 00:25:05;;;;;;;11.60;5.62;;;;;;;15.67;59.72;99114.12;1786432;80;21488;-81
2021/10/21 00:27:31;;;;;;;11.45;5.72;;;;;;;15.64;59.82;99109.22;1754918;81;20983;-80
2021/10/21 00:29:58;;;;;;;13.45;6.33;;;;;;;15.61;59.96;99084.17;1746703;81;21024;-80
2021/10/21 00:32:24;;;;;;;7.90;5.30;;;;;;;15.61;60.07;99104.32;1794938;78;20998;-80
2021/10/21 00:34:50;;;;;;;11.48;5.87;;;;;;;15.61;60.19;99101.64;1801142;78;21045;-81
2021/10/21 00:37:16;;;;;;;9.95;6.20;;;;;;;15.61;60.29;99101.64;1816539;79;21144;-81
2021/10/21 00:39:42;;;;;;;7.33;5.30;;;;;;;15.61;60.40;99104.32;1816212;79;20983;-81
2021/10/21 00:42:08;;;;;;;12.65;8.05;;;;;;;15.60;60.50;99096.78;1803326;78;21027;-81
2021/10/21 00:44:34;;;;;;;9.63;6.25;;;;;;;15.61;60.62;99094.92;1723138;83;21011;-81
2021/10/21 00:47:01;;;;;;;11.00;6.87;;;;;;;15.60;60.68;99078.49;1715768;83;21039;-80
2021/10/21 00:49:27;;;;;;;11.90;5.90;;;;;;;15.59;60.81;99063.41;1694524;84;21085;-81
2021/10/21 00:51:53;;;;;;;11.45;6.05;;;;;;;15.57;60.89;99052.09;1723550;83;21060;-81
2021/10/21 00:54:19;;;;;;;10.68;5.75;;;;;;;15.53;60.99;99046.89;1693149;84;21011;-81
2021/10/21 00:56:46;;;;;;;11.05;5.97;;;;;;;15.51;61.11;98999.30;1694369;84;21543;-81
2021/10/21 00:59:12;;;;;;;11.28;7.42;;;;;;;15.47;61.25;98954.06;1723525;83;21102;-81
2021/10/21 01:01:38;;;;;;;15.10;7.85;;;;;;;15.43;61.43;98974.39;1693000;84;21037;-80
2021/10/21 01:04:05;;;;;;;9.18;7.08;;;;;;;15.37;61.58;99012.95;1694462;84;21039;-80
2021/10/21 01:06:32;;;;;;;6.87;5.60;;;;;;;15.32;61.71;99021.41;1723502;82;21445;-80
2021/10/21 01:09:00;;;;;;;12.63;6.35;;;;;;;15.28;61.86;99003.59;1693182;83;21067;-80
2021/10/21 01:11:26;;;;;;;8.45;6.10;;;;;;;15.27;62.08;99004.64;1693015;83;21525;-80
2021/10/21 01:13:52;;;;;;;9.80;6.37;;;;;;;15.27;62.23;99003.30;1714453;82;21780;-80
2021/10/21 01:16:18;;;;;;;7.12;5.33;;;;;;;15.29;62.36;98990.47;1718040;83;20984;-80
2021/10/21 01:18:44;;;;;;;11.57;6.85;;;;;;;15.32;62.47;98983.28;1718830;82;21098;-81
2021/10/21 01:21:11;;;;;;;7.22;6.03;;;;;;;15.33;62.54;98982.23;1717281;83;21043;-80
2021/10/21 01:23:37;;;;;;;6.15;5.22;;;;;;;15.37;62.65;98987.44;1717917;83;21532;-80
2021/10/21 01:26:09;;;;;;;7.58;5.72;;;;;;;15.39;62.80;98987.18;1717847;83;21258;-80
2021/10/21 01:28:36;;;;;;;10.98;5.87;;;;;;;15.43;62.77;98970.88;1717253;83;21095;-80
2021/10/21 01:31:02;;;;;;;9.50;5.85;;;;;;;15.44;62.82;98945.14;1718066;82;21484;-80
2021/10/21 01:33:29;;;;;;;8.60;5.85;;;;;;;15.48;62.90;98947.65;1718003;83;21468;-80
2021/10/21 01:35:55;;;;;;;9.25;5.97;;;;;;;15.49;62.93;98931.83;1689416;83;21059;-81
2021/10/21 01:38:21;;;;;;;11.70;5.42;;;;;;;15.51;62.94;98917.34;1718109;83;21083;-80
2021/10/21 01:40:48;;;;;;;9.58;6.28;;;;;;;15.54;62.75;98912.83;1720493;82;21006;-81
2021/10/21 01:43:14;;;;;;;10.35;5.85;;;;;;;15.56;63.01;98916.09;1733946;82;21078;-80
2021/10/21 01:45:40;;;;;;;9.13;5.22;;;;;;;15.57;63.05;98923.10;1733929;82;21011;-80
2021/10/21 01:48:07;;;;;;;7.85;4.90;;;;;;;15.59;63.06;98935.23;1733391;82;21078;-81
2021/10/21 01:50:33;;;;;;;11.55;6.00;;;;;;;15.62;63.09;98940.69;1734038;82;21391;-80
2021/10/21 01:52:59;;;;;;;8.48;5.62;;;;;;;15.63;63.14;98944.46;1733895;82;21062;-81
2021/10/21 01:55:25;;;;;;;14.73;7.37;;;;;;;15.64;63.19;98952.00;1734090;82;21125;-81
2021/10/21 01:57:52;;;;;;;9.43;4.95;;;;;;;15.65;63.21;98953.64;1733946;82;21037;-81
2021/10/21 02:00:21;;;;;;;12.73;5.47;;;;;;;15.65;63.24;98940.20;1761622;81;20999;-81
2021/10/21 02:02:48;;;;;;;7.05;5.55;;;;;;;15.64;63.24;98935.36;1752726;81;21499;-80
2021/10/21 02:05:15;;;;;;;8.25;5.60;;;;;;;15.63;63.28;98935.58;1733705;82;21050;-81
2021/10/21 02:07:42;;;;;;;6.47;4.72;;;;;;;15.61;63.30;98925.61;1734180;82;20975;-81
2021/10/21 02:10:12;;;;;;;6.83;5.25;;;;;;;15.60;63.32;98936.06;1749922;81;21074;-80
2021/10/21 02:12:38;;;;;;;10.23;6.20;;;;;;;15.58;63.36;98918.84;1785283;80;21104;-80
2021/10/21 02:15:05;;;;;;;8.18;5.28;;;;;;;15.56;63.39;98918.77;1791953;80;21074;-80
2021/10/21 02:17:31;;;;;;;9.38;5.33;;;;;;;15.55;63.42;98913.13;1754889;81;21007;-80
2021/10/21 02:19:57;;;;;;;8.93;5.12;;;;;;;15.54;63.46;98914.17;1791821;80;21000;-80
2021/10/21 02:22:23;;;;;;;9.28;4.80;;;;;;;15.51;63.52;98921.38;1754958;81;21117;-80
2021/10/21 02:24:50;;;;;;;9.78;7.47;;;;;;;15.50;63.59;98924.59;1791738;80;36934;-80
2021/10/21 02:27:16;;;;;;;10.48;5.72;;;;;;;15.48;63.65;98916.75;1754294;81;21076;-80
2021/10/21 02:29:42;;;;;;;12.75;5.90;;;;;;;15.46;63.71;98929.59;1754952;81;21062;-80
2021/10/21 02:32:08;;;;;;;7.15;5.40;;;;;;;15.44;63.88;98920.95;1760458;81;21043;-80
2021/10/21 02:34:34;;;;;;;10.63;5.42;;;;;;;15.42;63.83;98924.91;1754820;81;21097;-80
2021/10/21 02:37:00;;;;;;;12.15;5.90;;;;;;;15.39;63.87;98922.19;1760560;81;21065;-81
2021/10/21 02:39:26;;;;;;;20.62;12.30;;;;;;;15.36;63.94;98917.29;1755135;81;21154;-80
2021/10/21 02:41:52;;;;;;;8.05;6.00;;;;;;;15.25;64.01;98899.32;1765820;79;21020;-80
2021/10/21 02:44:18;;;;;;;9.38;5.45;;;;;;;15.35;64.04;98917.52;1773173;79;21004;-80
2021/10/21 02:46:44;;;;;;;7.47;5.03;;;;;;;15.23;64.09;98902.78;1780705;79;21035;-80
2021/10/21 02:49:10;;;;;;;8.33;4.67;;;;;;;15.33;64.14;98917.77;1752470;81;21050;-80
2021/10/21 02:51:36;;;;;;;10.40;4.42;;;;;;;15.32;64.20;98909.41;1778497;80;21487;-80
2021/10/21 02:54:02;;;;;;;8.63;4.72;;;;;;;15.36;64.53;98893.11;1785136;78;21503;-80
2021/10/21 02:56:28;;;;;;;5.17;4.15;;;;;;;15.36;64.53;98893.11;1740209;82;21515;-80
2021/10/21 02:58:54;;;;;;;9.68;4.17;;;;;;;15.40;64.34;98882.19;1773896;80;21621;-81
2021/10/21 03:01:20;;;;;;;6.65;3.80;;;;;;;15.31;64.43;98875.53;1783062;78;20971;-81
2021/10/21 03:03:46;;;;;;;7.40;4.28;;;;;;;15.42;64.37;98901.55;1783796;80;21855;-81
2021/10/21 03:06:12;;;;;;;6.05;3.75;;;;;;;15.42;64.42;98888.13;1719251;83;21011;-81
2021/10/21 03:08:38;;;;;;;5.78;3.75;;;;;;;15.42;64.43;98881.41;1783924;80;20962;-81
2021/10/21 03:11:04;;;;;;;5.70;4.05;;;;;;;15.42;64.45;98878.72;1719115;83;21015;-80
2021/10/21 03:13:31;;;;;;;21.30;13.13;;;;;;;15.42;64.45;98880.06;1784088;80;21078;-81
2021/10/21 03:15:57;;;;;;;11.00;5.20;;;;;;;15.44;64.45;98869.09;1784146;80;21128;-80
2021/10/21 03:18:23;;;;;;;5.58;4.08;;;;;;;15.33;64.42;98849.27;1784974;78;21006;-80
2021/10/21 03:20:49;;;;;;;6.87;3.70;;;;;;;15.32;64.42;98854.34;1784209;80;20979;-81
2021/10/21 03:23:19;;;;;;;6.92;3.98;;;;;;;15.38;64.32;98881.59;1783696;80;21094;-81
2021/10/21 03:25:43;;;;;;;10.13;4.58;;;;;;;15.38;64.32;98881.59;1784225;80;21117;-81
2021/10/21 03:28:09;;;;;;;6.67;4.67;;;;;;;15.37;64.51;98888.56;1784191;79;21116;-81
2021/10/21 03:30:35;;;;;;;5.47;4.28;;;;;;;15.24;64.57;98858.73;1719530;83;21067;-80
2021/10/21 03:33:01;;;;;;;4.62;4.00;;;;;;;15.35;64.64;98879.38;1784281;80;21472;-81
2021/10/21 03:35:27;;;;;;;7.20;5.10;;;;;;;15.38;64.66;98888.83;1719689;83;21089;-81
2021/10/21 03:37:53;;;;;;;6.55;4.42;;;;;;;15.38;64.67;98886.96;1784365;80;21097;-81
2021/10/21 03:40:19;;;;;;;9.98;4.35;;;;;;;15.34;64.71;98888.48;1720389;82;21135;-81
2021/10/21 03:42:46;;;;;;;8.48;4.90;;;;;;;15.31;64.77;98894.34;1786161;79;21006;-81
2021/10/21 03:45:12;;;;;;;5.58;4.35;;;;;;;15.26;64.85;98896.11;1719446;83;21055;-81
2021/10/21 03:47:38;;;;;;;8.10;4.87;;;;;;;15.23;64.98;98896.59;1762522;81;21122;-81
2021/10/21 03:50:04;;;;;;;9.15;5.03;;;;;;;15.18;64.98;98894.60;1719584;83;21059;-80
2021/10/21 03:52:30;;;;;;;9.58;5.40;;;;;;;15.11;65.19;98898.47;1773373;80;21485;-81
2021/10/21 03:54:56;;;;;;;6.55;5.60;;;;;;;15.04;65.29;98895.91;1737892;81;21595;-81
2021/10/21 03:57:22;;;;;;;6.08;5.15;;;;;;;14.88;65.45;98892.61;1775682;80;20959;-81
2021/10/21 03:59:48;;;;;;;9.83;6.20;;;;;;;14.84;65.85;98890.09;1775702;80;20944;-81
2021/10/21 04:02:14;;;;;;;6.40;5.12;;;;;;;14.87;65.75;98907.08;1775546;79;21006;-81
2021/10/21 04:04:41;;;;;;;6.33;4.62;;;;;;;14.83;65.88;98909.92;1775777;80;21225;-81
2021/10/21 04:07:07;;;;;;;7.05;4.95;;;;;;;14.81;66.01;98917.41;1782365;79;21015;-80
2021/10/21 04:09:33;;;;;;;10.08;4.97;;;;;;;14.78;66.13;98914.64;1784419;80;21006;-81
2021/10/21 04:11:59;;;;;;;7.25;4.97;;;;;;;14.77;66.28;98909.53;1784175;80;21078;-81
2021/10/21 04:14:25;;;;;;;7.25;5.12;;;;;;;14.73;66.58;98909.70;1784083;80;21066;-81
2021/10/21 04:16:51;;;;;;;6.72;4.70;;;;;;;14.73;66.58;98909.70;1784359;80;21121;-81
2021/10/21 04:19:17;;;;;;;8.43;5.05;;;;;;;14.60;66.60;98883.10;1784514;80;21014;-81
2021/10/21 04:21:43;;;;;;;9.25;5.20;;;;;;;14.70;66.71;98902.11;1749625;82;21050;-81
2021/10/21 04:24:09;;;;;;;7.15;5.12;;;;;;;14.68;66.87;98885.41;1783969;80;20995;-80
2021/10/21 04:26:35;;;;;;;8.63;5.92;;;;;;;14.68;66.91;98880.87;1749397;82;21058;-81
2021/10/21 04:29:01;;;;;;;8.15;6.08;;;;;;;14.68;66.91;98880.87;1784389;79;21152;-81
2021/10/21 04:31:27;;;;;;;8.20;5.17;;;;;;;14.49;67.10;98858.69;1749436;82;21007;-81
2021/10/21 04:33:53;;;;;;;10.00;6.28;;;;;;;14.49;67.10;98858.69;1784490;79;20915;-81
2021/10/21 04:36:19;;;;;;;12.45;7.33;;;;;;;14.37;67.33;98853.86;1784216;80;20983;-81
2021/10/21 04:38:45;;;;;;;8.68;6.05;;;;;;;14.37;67.33;98853.86;1783971;80;21050;-81
2021/10/21 04:41:11;;;;;;;11.78;6.78;;;;;;;14.39;67.50;98861.69;1784068;80;21093;-81
2021/10/21 04:43:37;;;;;;;14.75;6.45;;;;;;;14.12;67.81;98814.33;1783800;80;21551;-80
2021/10/21 04:46:03;;;;;;;11.28;7.58;;;;;;;14.11;67.96;98753.71;1784167;80;20995;-81
2021/10/21 04:48:29;;;;;;;14.93;7.50;;;;;;;14.11;67.96;98753.71;1783817;80;20996;-80
2021/10/21 04:50:55;;;;;;;9.58;6.87;;;;;;;13.89;68.27;98688.35;1784080;80;21091;-81
2021/10/21 04:53:21;;;;;;;10.38;6.37;;;;;;;13.84;68.52;98635.97;1784564;79;21082;-81
2021/10/21 04:55:47;;;;;;;9.20;6.65;;;;;;;13.73;68.95;98563.11;1784274;80;21495;-80
2021/10/21 04:58:13;;;;;;;13.35;6.83;;;;;;;13.64;69.30;98600.69;1784057;80;21025;-81
2021/10/21 05:00:39;;;;;;;9.75;6.25;;;;;;;13.63;69.54;98608.42;1749371;82;20872;-81
2021/10/21 05:03:12;;;;;;;9.83;5.40;;;;;;;13.66;69.68;98620.02;1784089;78;21055;-80
2021/10/21 05:05:40;;;;;;;8.93;5.70;;;;;;;13.70;69.82;98619.84;1719611;83;21194;-81
2021/10/21 05:08:06;;;;;;;10.93;6.50;;;;;;;13.77;69.93;98629.91;1751811;80;21475;-81
2021/10/21 05:10:32;;;;;;;9.45;6.53;;;;;;;13.82;70.01;98646.94;1739111;82;21849;-81
2021/10/21 05:12:59;;;;;;;9.95;6.40;;;;;;;13.86;70.06;98635.23;1816285;79;21070;-81
2021/10/21 05:15:25;;;;;;;7.50;5.92;;;;;;;13.89;70.14;98649.50;1749174;82;21019;-80
2021/10/21 05:17:51;;;;;;;10.70;6.12;;;;;;;13.91;70.15;98654.08;1793892;80;21291;-81
2021/10/21 05:20:17;;;;;;;8.78;5.90;;;;;;;13.91;70.19;98643.36;1821005;78;21348;-80
2021/10/21 05:22:43;;;;;;;9.10;6.05;;;;;;;13.91;70.23;98661.60;1774473;80;21040;-80
2021/10/21 05:25:10;;;;;;;7.28;5.97;;;;;;;13.95;70.31;98639.99;1762501;81;21027;-81
2021/10/21 05:27:36;;;;;;;9.05;5.47;;;;;;;13.97;70.34;98581.59;1719630;83;21034;-80
2021/10/21 05:30:05;;;;;;;7.70;5.30;;;;;;;13.97;70.37;98567.37;1784248;80;21046;-81
2021/10/21 05:32:31;;;;;;;7.80;6.03;;;;;;;13.98;70.40;98586.44;1783837;80;20967;-80
2021/10/21 05:34:57;;;;;;;7.83;5.92;;;;;;;13.99;70.45;98587.55;1808767;78;21482;-80
2021/10/21 05:37:23;;;;;;;7.92;5.65;;;;;;;14.00;70.47;98578.98;1822289;78;21007;-80
2021/10/21 05:39:49;;;;;;;8.50;6.20;;;;;;;14.01;70.52;98582.75;1822568;78;21015;-80
2021/10/21 05:42:15;;;;;;;8.78;5.50;;;;;;;14.03;70.58;98567.80;1814344;78;21039;-80
2021/10/21 05:44:41;;;;;;;7.92;5.25;;;;;;;14.07;70.60;98569.47;1791646;80;21054;-81
2021/10/21 05:47:07;;;;;;;8.93;5.05;;;;;;;14.09;70.61;98551.27;1791911;79;21045;-81
2021/10/21 05:49:33;;;;;;;11.57;5.15;;;;;;;14.15;70.65;98555.16;1792099;79;20995;-81
2021/10/21 05:51:59;;;;;;;11.00;5.10;;;;;;;14.20;70.68;98549.09;1782716;79;20993;-81
2021/10/21 05:54:25;;;;;;;8.15;4.62;;;;;;;14.24;70.71;98524.25;1770529;81;21014;-80
2021/10/21 05:56:51;;;;;;;6.72;3.98;;;;;;;14.28;70.72;98538.81;1770728;81;21686;-80
2021/10/21 05:59:17;;;;;;;6.67;4.20;;;;;;;14.32;70.75;98540.48;1695163;84;20991;-81
2021/10/21 06:01:43;;;;;;;4.83;3.98;;;;;;;14.35;70.78;98556.95;1728084;81;21030;-80
2021/10/21 06:04:09;;;;;;;5.12;4.40;;;;;;;14.36;70.79;98547.83;1695067;84;21062;-81
2021/10/21 06:06:37;;;;;;;4.58;3.12;;;;;;;14.39;70.86;98548.69;1724140;83;21071;-80
2021/10/21 06:09:04;;;;;;;4.45;3.35;;;;;;;14.44;70.92;98544.77;1702835;83;21496;-81
2021/10/21 06:11:32;;;;;;;4.90;3.08;;;;;;;14.49;70.95;98550.20;1698887;83;21025;-80
2021/10/21 06:14:01;;;;;;;6.90;3.80;;;;;;;14.55;71.03;98542.27;1723433;82;21452;-80
2021/10/21 06:16:27;;;;;;;11.48;4.70;;;;;;;14.59;71.05;98537.53;1693656;82;20994;-80
2021/10/21 06:18:53;;;;;;;3.10;2.40;;;;;;;14.62;71.06;98540.25;1725025;81;21496;-80
2021/10/21 06:21:24;;;;;;;4.17;2.80;;;;;;;14.66;71.08;98539.53;1750315;81;21449;-80
2021/10/21 06:23:47;;;;;;;3.00;2.52;;;;;;;14.69;71.10;98547.63;1720539;82;21424;-80
2021/10/21 06:26:13;;;;;;;3.98;2.62;;;;;;;14.70;71.09;98529.95;1699231;83;21489;-80
2021/10/21 06:28:40;;;;;;;5.62;2.77;;;;;;;14.59;71.24;98511.23;1695097;82;21010;-80
2021/10/21 06:31:06;;;;;;;5.08;2.77;;;;;;;14.64;71.16;98527.40;1723377;83;21151;-80
2021/10/21 06:33:32;;;;;;;6.78;2.50;;;;;;;14.44;71.29;98500.52;1721711;82;21008;-80
2021/10/21 06:35:58;;;;;;;6.87;2.60;;;;;;;14.44;71.29;98500.52;1681831;83;21055;-80
2021/10/21 06:38:24;;;;;;;6.30;3.25;;;;;;;14.54;71.43;98513.28;1723850;82;21017;-80
2021/10/21 06:40:50;;;;;;;3.65;2.65;;;;;;;14.55;71.57;98492.12;1723971;82;21053;-80
2021/10/21 06:43:16;;;;;;;3.50;2.58;;;;;;;14.54;71.66;98493.16;1740777;81;21052;-80
2021/10/21 06:45:42;;;;;;;3.40;2.80;;;;;;;14.55;71.75;98489.44;1754681;81;21033;-80
2021/10/21 06:48:08;;;;;;;3.15;2.62;;;;;;;14.58;71.79;98484.11;1754193;80;20978;-80
2021/10/21 06:50:35;;;;;;;3.37;2.75;;;;;;;14.61;71.92;98514.47;1754402;81;21091;-80
2021/10/21 06:53:01;;;;;;;4.62;2.92;;;;;;;14.61;71.92;98514.47;1754650;81;21095;-80
2021/10/21 06:55:27;;;;;;;6.30;3.35;;;;;;;14.61;71.88;98509.10;1755172;81;21096;-80
2021/10/21 06:57:59;;;;;;;8.85;4.85;;;;;;;14.61;71.94;98534.59;1754107;80;21624;-80
2021/10/21 07:00:27;;;;;;;7.67;4.70;;;;;;;14.60;71.96;98529.75;1725650;81;21627;-80
2021/10/21 07:02:55;;;;;;;5.28;4.42;;;;;;;14.58;71.97;98527.03;1770794;80;21059;-80
2021/10/21 07:05:27;;;;;;;6.40;4.50;;;;;;;14.52;71.95;98500.66;1776194;79;21552;-80
2021/10/21 07:07:49;;;;;;;6.60;5.03;;;;;;;14.33;71.92;98495.98;1771766;79;21337;-80
2021/10/21 07:10:15;;;;;;;8.48;5.92;;;;;;;14.33;71.92;98495.98;1748051;81;21059;-80
2021/10/21 07:12:47;;;;;;;7.85;4.90;;;;;;;14.23;72.11;98509.20;1770641;81;21542;-80
2021/10/21 07:15:15;;;;;;;7.28;5.12;;;;;;;14.18;72.19;98522.50;1776601;79;21013;-80
2021/10/21 07:17:42;;;;;;;6.62;4.80;;;;;;;14.13;72.24;98518.41;1734889;81;21027;-80
2021/10/21 07:20:09;;;;;;;8.83;5.28;;;;;;;14.09;72.31;98552.09;1784892;79;21023;-80
2021/10/21 07:22:35;;;;;;;10.35;5.85;;;;;;;14.09;72.35;98507.86;1745810;81;21023;-80
2021/10/21 07:25:01;;;;;;;8.00;5.50;;;;;;;14.08;72.39;98494.16;1751695;81;21562;-81
2021/10/21 07:27:28;;;;;;;7.42;5.10;;;;;;;14.05;72.46;98502.69;1802416;79;21043;-79
2021/10/21 07:29:54;;;;;;;7.78;5.33;;;;;;;14.04;72.52;98503.73;1752827;81;21511;-80
2021/10/21 07:32:20;;;;;;;7.28;4.50;;;;;;;14.04;72.60;98505.63;1790485;79;21823;-80
2021/10/21 07:34:46;;;;;;;8.25;5.05;;;;;;;14.05;72.67;98489.28;1754872;81;21041;-80
2021/10/21 07:37:12;;;;;;;7.60;5.22;;;;;;;14.08;72.68;98494.16;1790804;79;21508;-80
2021/10/21 07:39:40;;;;;;;6.97;4.60;;;;;;;14.10;72.71;98498.78;1780580;79;21113;-80
2021/10/21 07:42:09;;;;;;;8.65;5.00;;;;;;;14.11;72.73;98497.70;1771892;79;21539;-80
2021/10/21 07:44:45;;;;;;;9.00;4.72;;;;;;;14.15;72.71;98480.61;1764557;80;21167;-80
2021/10/21 07:47:11;;;;;;;11.93;4.95;;;;;;;14.17;72.71;98480.69;1734136;82;21043;-80
2021/10/21 07:49:37;;;;;;;6.92;5.05;;;;;;;14.20;72.70;98485.56;1789521;79;21120;-80
2021/10/21 07:52:04;;;;;;;9.88;5.00;;;;;;;14.22;72.67;98486.13;1776973;80;21023;-80
2021/10/21 07:54:31;;;;;;;6.83;5.92;;;;;;;14.22;72.63;98479.42;1790595;79;21058;-80
2021/10/21 07:57:00;;;;;;;10.78;5.55;;;;;;;14.22;72.59;98485.30;1787154;78;21076;-81
2021/10/21 07:59:26;;;;;;;13.50;5.80;;;;;;;14.19;72.58;98482.59;1783063;79;21011;-80
2021/10/21 08:01:54;;;;;;;9.43;5.03;;;;;;;14.16;72.56;98468.84;1797807;78;21085;-80
2021/10/21 08:04:20;;;;;;;9.45;5.45;;;;;;;14.14;72.58;98474.47;1814282;78;21015;-80
2021/10/21 08:06:48;;;;;;;5.25;4.65;;;;;;;14.14;72.61;98459.72;1798878;78;21051;-79
2021/10/21 08:09:14;;;;;;;9.25;5.58;;;;;;;14.13;72.62;98450.05;1803516;78;21155;-78
2021/10/21 08:11:41;;;;;;;6.87;5.30;;;;;;;14.13;72.62;98446.02;1803049;78;21485;-80
2021/10/21 08:14:10;;;;;;;6.67;5.72;;;;;;;14.13;72.62;98445.20;1809260;78;21049;-79
2021/10/21 08:16:36;;;;;;;7.72;4.78;;;;;;;14.17;72.63;98439.13;1811082;77;21505;-78
2021/10/21 08:19:03;;;;;;;6.17;4.92;;;;;;;14.19;72.62;98430.83;1804859;78;21074;-79
2021/10/21 08:21:31;;;;;;;6.40;5.47;;;;;;;14.21;72.60;98412.12;1794786;78;21751;-79
2021/10/21 08:24:03;;;;;;;7.25;5.20;;;;;;;14.25;72.55;98417.27;1799104;78;21117;-79
2021/10/21 08:26:29;;;;;;;6.62;4.85;;;;;;;14.30;72.52;98412.00;1806366;78;21022;-78
2021/10/21 08:28:55;;;;;;;9.13;5.47;;;;;;;14.36;72.40;98391.47;1798623;78;21498;-78
2021/10/21 08:31:21;;;;;;;8.10;5.12;;;;;;;14.36;72.40;98391.47;1767304;78;21543;-78
2021/10/21 08:33:47;;;;;;;5.95;4.70;;;;;;;14.56;72.37;98397.19;1802252;78;21678;-78
2021/10/21 08:36:15;;;;;;;7.45;5.03;;;;;;;14.53;72.27;98378.08;1807191;78;21068;-79
2021/10/21 08:38:42;;;;;;;5.85;4.80;;;;;;;14.78;72.19;98381.12;1796950;78;20991;-79
2021/10/21 08:41:14;;;;;;;8.10;5.37;;;;;;;14.86;72.09;98391.45;1734763;81;20978;-79
2021/10/21 08:43:40;;;;;;;8.15;5.05;;;;;;;14.78;72.02;98360.47;1735027;78;21060;-79
2021/10/21 08:46:06;;;;;;;8.78;4.90;;;;;;;14.93;71.87;98389.41;1807981;78;21195;-80
2021/10/21 08:48:34;;;;;;;9.58;5.65;;;;;;;14.92;71.78;98384.56;1814591;78;21000;-79
2021/10/21 08:51:01;;;;;;;10.05;5.50;;;;;;;15.03;71.69;98384.17;1812278;78;20993;-79
2021/10/21 08:53:27;;;;;;;5.87;4.70;;;;;;;15.14;71.58;98379.23;1796515;78;21029;-79
2021/10/21 08:55:55;;;;;;;6.75;4.85;;;;;;;15.20;71.63;98374.20;1807983;77;21052;-79
2021/10/21 08:58:25;;;;;;;5.40;4.55;;;;;;;15.28;71.41;98375.11;1807710;77;21194;-79
2021/10/21 09:01:01;;;;;;;6.23;4.63;;;;;;;15.38;71.43;98379.80;1805295;78;20980;-79
2021/10/21 09:04:00;;;;;;;5.28;4.33;;;;;;;15.48;71.26;98376.73;1801894;78;20987;-80
2021/10/21 09:08:50;;;;;;;4.80;4.20;;;;;;;15.90;71.07;98357.31;1682459;81;21038;-80
2021/10/21 09:11:21;;;;;;;4.35;3.45;;;;;;;16.10;70.89;98360.19;1736065;81;21584;-80
2021/10/21 09:13:47;;;;;;;4.65;3.08;;;;;;;16.27;70.73;98343.39;1765246;80;21538;-79
2021/10/21 09:16:18;;;;;;;4.40;2.05;;;;;;;16.47;70.53;98351.61;1737384;81;21083;-80
2021/10/21 09:18:46;;;;;;;4.37;2.00;;;;;;;16.72;70.22;98345.63;1785490;78;21054;-79
2021/10/21 09:21:32;;;;;;;6.53;1.98;;;;;;;16.95;69.55;98341.20;1742592;82;21867;-79
2021/10/21 09:24:02;;;;;;;4.50;2.02;;;;;;;17.03;68.91;98339.87;1789570;79;21031;-79
2021/10/21 09:26:28;;;;;;;3.10;2.00;;;;;;;17.06;68.37;98343.41;1798046;77;21215;-79
2021/10/21 09:28:54;;;;;;;2.10;1.62;;;;;;;17.06;67.80;98342.06;1718271;83;21074;-79
2021/10/21 09:31:20;;;;;;;6.55;2.15;;;;;;;17.13;67.16;98343.98;1789070;78;21007;-79
2021/10/21 09:33:49;;;;;;;2.60;1.90;;;;;;;17.27;66.60;98342.43;1733483;80;21081;-79
2021/10/21 09:36:21;;;;;;;3.25;2.35;;;;;;;17.43;66.24;98321.19;1783206;80;21749;-80
2021/10/21 09:38:51;;;;;;;2.25;2.05;;;;;;;17.54;65.82;98315.83;1781974;80;21057;-80
2021/10/21 09:41:20;;;;;;;3.47;1.70;;;;;;;17.49;65.21;98292.36;1748144;80;21614;-88
2021/10/21 09:43:46;;;;;;;13.40;3.45;;;;;;;17.37;64.89;98311.48;1736856;81;21533;-89
2021/10/21 09:46:41;;;;;;;4.55;2.75;;;;;;;17.08;64.51;98353.38;1748422;81;21018;-89
2021/10/21 09:49:33;;;;;;;11.28;3.70;;;;;;;16.43;64.93;98371.23;1729734;81;21226;-87
2021/10/21 09:52:01;;;;;;;9.60;3.22;;;;;;;15.76;65.97;98361.47;1717785;83;21051;-88
2021/10/21 09:54:31;;;;;;;11.10;3.98;;;;;;;15.30;66.94;98398.52;1720009;82;21055;-89
2021/10/21 09:57:03;;;;;;;12.10;3.75;;;;;;;14.93;67.90;98435.03;1705362;82;28237;-90
2021/10/21 09:59:34;;;;;;;4.30;2.25;;;;;;;14.48;68.86;98433.27;1714476;83;21614;-88
2021/10/21 10:02:11;;;;;;;5.55;2.70;;;;;;;14.13;69.96;98408.49;1717563;83;21739;-88
2021/10/21 10:04:37;;;;;;;4.22;2.58;;;;;;;14.01;70.70;98384.42;1730623;81;21487;-90
2021/10/21 10:07:03;;;;;;;8.68;3.20;;;;;;;14.01;71.27;98370.20;1704821;83;21081;-88
2021/10/21 10:09:32;;;;;;;7.33;3.15;;;;;;;13.96;71.65;98367.45;1725226;82;21054;-88
2021/10/21 10:12:05;;;;;;;5.53;2.33;;;;;;;13.96;71.65;98367.45;1682976;83;21059;-89
2021/10/21 10:14:43;;;;;;;5.58;3.67;;;;;;;13.96;72.11;98362.09;1715911;83;21178;-90
2021/10/21 10:17:10;;;;;;;6.50;3.50;;;;;;;13.93;72.32;98378.66;1745673;82;21008;-89
2021/10/21 10:19:36;;;;;;;7.28;3.47;;;;;;;14.03;72.66;98382.85;1726768;82;21067;-89
2021/10/21 10:22:05;;;;;;;4.67;2.67;;;;;;;14.28;72.93;98382.48;1689427;83;21067;-89
2021/10/21 10:24:33;;;;;;;4.30;2.47;;;;;;;14.28;72.93;98382.48;1735297;82;20996;-90
2021/10/21 10:27:02;;;;;;;13.68;2.40;;;;;;;14.45;73.23;98390.03;1741864;81;21035;-89
2021/10/21 10:29:41;;;;;;;8.18;2.60;;;;;;;14.64;73.41;98378.50;1721286;82;21005;-88
2021/10/21 10:32:30;;;;;;;4.30;2.33;;;;;;;14.78;73.28;98387.83;1723102;82;21540;-89
2021/10/21 10:34:58;;;;;;;;;;;;;;;14.86;73.28;98375.34;1696388;82;21047;-88
2021/10/21 10:37:29;;;;;;;8.18;2.45;;;;;;;15.04;73.24;98372.38;1721947;82;20331;-90
2021/10/21 10:39:57;;;;;;;17.50;3.22;;;;;;;15.17;73.14;98382.75;1733478;82;21117;-89
2021/10/21 10:42:35;;;;;;;6.10;2.00;;;;;;;15.29;72.97;98385.33;1727561;82;20995;-90
2021/10/21 10:45:07;;;;;;;4.50;1.80;;;;;;;15.35;72.87;98390.52;1755736;80;21013;-91
2021/10/21 10:47:53;;;;;;;3.50;1.42;;;;;;;15.47;72.71;98393.90;1766197;79;21046;-90
2021/10/21 10:50:29;;;;;;;4.22;1.87;;;;;;;15.47;72.34;98393.90;1769582;80;21674;-89
2021/10/21 10:53:08;;;;;;;4.47;1.60;;;;;;;15.44;71.66;98409.70;1797875;78;21137;-90
2021/10/21 10:55:47;;;;;;;4.62;1.40;;;;;;;15.33;71.02;98406.08;1744676;80;21043;-89
2021/10/21 10:58:26;;;;;;;7.87;1.57;;;;;;;15.31;70.12;98405.50;1743002;81;21072;-87
2021/10/21 11:00:56;;;;;;;5.62;1.65;;;;;;;15.33;69.22;98414.13;1809701;78;21027;-87
2021/10/21 11:03:35;;;;;;;5.20;1.20;;;;;;;15.36;68.37;98421.69;1811404;78;21052;-87
2021/10/21 11:06:10;;;;;;;7.85;1.82;;;;;;;15.39;67.69;98423.87;1738419;81;21945;-87
2021/10/21 11:08:59;;;;;;;9.70;2.30;;;;;;;15.36;67.05;98423.03;1762829;80;21054;-89
2021/10/21 11:12:01;;;;;;;8.58;1.52;;;;;;;15.29;66.21;98421.06;1741970;81;21031;-88
2021/10/21 11:14:40;;;;;;;6.33;1.90;;;;;;;15.26;65.38;98440.36;1689240;81;21008;-89
2021/10/21 11:17:06;;;;;;;6.75;1.72;;;;;;;15.27;64.99;98435.25;1739699;81;21082;-90
2021/10/21 11:19:46;;;;;;;14.70;2.35;;;;;;;15.30;64.35;98441.50;1742625;81;21025;-87
2021/10/21 11:22:23;;;;;;;14.85;2.77;;;;;;;15.31;63.70;98428.33;1761484;80;21014;-88
2021/10/21 11:24:57;;;;;;;14.47;2.47;;;;;;;15.35;63.20;98434.83;1734449;80;21059;-72
2021/10/21 11:27:37;;;;;;;7.37;1.40;;;;;;;15.34;62.67;98439.91;1766698;80;21053;-73
2021/10/21 11:30:19;;;;;;;8.53;3.55;;;;;;;15.30;62.31;98445.52;1741538;80;21014;-73
2021/10/21 11:32:46;;;;;;;8.63;2.17;;;;;;;15.30;62.11;98458.95;1738273;80;21059;-73
2021/10/21 11:35:18;;;;;;;9.05;2.35;;;;;;;15.25;61.97;98460.21;1745551;82;21030;-73
2021/10/21 11:37:48;;;;;;;13.22;2.67;;;;;;;15.19;61.69;98449.13;1745205;80;21539;-73